createdAt,value
2017-12-24T00:00:08.662Z,4.06
2017-12-24T00:02:37.279Z,4.07
2017-12-24T00:05:05.211Z,4.10
2017-12-24T00:07:32.915Z,4.19
2017-12-24T00:10:00.723Z,4.10
2017-12-24T00:12:29.278Z,4.18
2017-12-24T00:14:57.492Z,4.26
2017-12-24T00:17:25.586Z,4.29
2017-12-24T00:19:53.494Z,4.27
2017-12-24T00:22:21.219Z,4.31
2017-12-24T00:24:49.128Z,4.35
2017-12-24T00:27:16.981Z,4.21
2017-12-24T00:29:44.760Z,4.28
2017-12-24T00:32:12.770Z,4.29
2017-12-24T00:34:40.407Z,4.23
2017-12-24T00:37:09.675Z,4.28
2017-12-24T00:39:38.192Z,4.31
2017-12-24T00:42:06.108Z,4.38
2017-12-24T00:44:34.626Z,4.37
2017-12-24T00:47:02.759Z,4.40
2017-12-24T00:49:31.605Z,4.32
2017-12-24T00:51:59.390Z,4.17
2017-12-24T00:54:27.223Z,4.15
2017-12-24T00:56:55.091Z,4.21
2017-12-24T00:59:22.831Z,4.36
2017-12-24T01:01:50.546Z,4.36
2017-12-24T01:04:29.105Z,4.32
2017-12-24T01:06:58.810Z,4.48
2017-12-24T01:09:26.581Z,4.50
2017-12-24T01:11:54.371Z,4.49
2017-12-24T01:14:22.433Z,4.37
2017-12-24T01:16:53.950Z,4.42
2017-12-24T01:26:03.660Z,4.17
2017-12-24T01:28:31.751Z,4.31
2017-12-24T01:31:00.204Z,4.44
2017-12-24T01:33:27.864Z,4.32
2017-12-24T01:35:56.628Z,4.34
2017-12-24T01:38:24.321Z,4.23
2017-12-24T01:40:52.569Z,4.37
2017-12-24T01:43:23.365Z,4.37
2017-12-24T01:45:51.703Z,4.42
2017-12-24T01:48:19.310Z,4.39
2017-12-24T01:50:58.128Z,4.47
2017-12-24T01:53:26.999Z,4.26
2017-12-24T01:55:54.842Z,4.35
2017-12-24T01:58:22.620Z,4.44
2017-12-24T02:00:51.401Z,4.50
2017-12-24T02:03:19.654Z,4.41
2017-12-24T02:05:47.375Z,4.47
2017-12-24T02:08:15.197Z,4.38
2017-12-24T02:10:43.176Z,4.47
2017-12-24T02:13:10.954Z,4.47
2017-12-24T02:15:39.590Z,4.45
2017-12-24T02:18:07.266Z,4.48
2017-12-24T02:20:34.934Z,4.50
2017-12-24T02:23:02.591Z,4.60
2017-12-24T02:25:30.673Z,4.62
2017-12-24T02:27:58.417Z,4.68
2017-12-24T02:30:26.791Z,4.64
2017-12-24T02:32:54.418Z,4.66
2017-12-24T02:35:22.419Z,4.63
2017-12-24T02:37:50.092Z,4.74
2017-12-24T02:40:18.130Z,4.67
2017-12-24T02:43:08.684Z,4.69
2017-12-24T02:45:38.138Z,4.78
2017-12-24T02:48:06.077Z,4.80
2017-12-24T02:50:34.155Z,4.82
2017-12-24T02:53:02.292Z,4.88
2017-12-24T02:55:31.313Z,4.89
2017-12-24T02:57:59.167Z,4.86
2017-12-24T03:00:26.999Z,4.95
2017-12-24T03:02:55.173Z,4.97
2017-12-24T03:05:23.518Z,4.89
2017-12-24T03:07:51.375Z,4.89
2017-12-24T03:10:19.180Z,4.91
2017-12-24T03:12:47.960Z,4.98
2017-12-24T03:15:16.979Z,5.05
2017-12-24T03:17:44.806Z,5.12
2017-12-24T03:20:13.170Z,5.03
2017-12-24T03:22:40.896Z,5.16
2017-12-24T03:25:08.927Z,5.21
2017-12-24T03:27:36.809Z,5.20
2017-12-24T03:30:06.853Z,5.14
2017-12-24T03:32:34.619Z,5.23
2017-12-24T03:35:02.331Z,5.26
2017-12-24T03:37:30.972Z,5.23
2017-12-24T03:39:58.630Z,5.22
2017-12-24T03:42:26.373Z,5.17
2017-12-24T03:44:54.096Z,5.16
2017-12-24T03:47:21.757Z,5.16
2017-12-24T03:49:49.496Z,5.23
2017-12-24T03:52:17.412Z,5.20
2017-12-24T03:54:45.316Z,5.27
2017-12-24T03:57:13.019Z,5.16
2017-12-24T03:59:40.686Z,5.29
2017-12-24T04:02:08.400Z,5.36
2017-12-24T04:04:35.988Z,5.43
2017-12-24T04:07:03.919Z,5.54
2017-12-24T04:09:31.609Z,5.52
2017-12-24T04:11:59.294Z,5.60
2017-12-24T04:14:27.733Z,5.63
2017-12-24T04:16:56.046Z,5.55
2017-12-24T04:19:24.728Z,5.46
2017-12-24T04:21:52.447Z,5.53
2017-12-24T04:24:20.390Z,5.40
2017-12-24T04:26:48.039Z,5.58
2017-12-24T04:29:15.918Z,5.59
2017-12-24T04:31:43.751Z,5.65
2017-12-24T04:34:11.838Z,5.67
2017-12-24T04:36:39.668Z,5.69
2017-12-24T04:39:08.291Z,5.75
2017-12-24T04:41:35.955Z,5.73
2017-12-24T04:44:03.962Z,5.71
2017-12-24T04:50:02.181Z,5.74
2017-12-24T04:52:29.949Z,5.81
2017-12-24T04:54:57.684Z,5.75
2017-12-24T04:57:26.285Z,5.88
2017-12-24T04:59:54.423Z,5.81
2017-12-24T05:02:22.177Z,5.86
2017-12-24T05:04:50.100Z,5.78
2017-12-24T05:07:17.731Z,5.76
2017-12-24T05:09:45.853Z,5.78
2017-12-24T05:12:13.486Z,5.74
2017-12-24T05:14:41.490Z,5.79
2017-12-24T05:17:09.256Z,5.78
2017-12-24T05:19:36.917Z,5.84
2017-12-24T05:22:04.825Z,5.89
2017-12-24T05:24:32.542Z,5.70
2017-12-24T05:27:00.319Z,5.87
2017-12-24T05:29:28.194Z,5.86
2017-12-24T05:31:56.354Z,5.82
2017-12-24T05:34:24.080Z,5.81
2017-12-24T05:36:51.765Z,5.94
2017-12-24T05:39:19.525Z,5.84
2017-12-24T05:41:47.676Z,5.92
2017-12-24T05:44:15.375Z,5.99
2017-12-24T05:46:43.095Z,5.93
2017-12-24T05:49:19.080Z,5.94
2017-12-24T05:51:46.773Z,5.91
2017-12-24T05:54:14.523Z,5.95
2017-12-24T05:56:42.217Z,6.03
2017-12-24T05:59:10.030Z,6.06
2017-12-24T06:01:37.779Z,6.12
2017-12-24T06:04:05.741Z,6.18
2017-12-24T06:06:33.625Z,6.18
2017-12-24T06:09:01.382Z,6.14
2017-12-24T06:11:29.401Z,6.25
2017-12-24T06:14:06.181Z,6.05
2017-12-24T06:16:33.924Z,6.19
2017-12-24T06:19:01.875Z,6.28
2017-12-24T06:21:29.721Z,6.34
2017-12-24T06:23:57.614Z,6.35
2017-12-24T06:26:25.352Z,6.33
2017-12-24T06:28:53.468Z,6.42
2017-12-24T06:31:22.093Z,6.45
2017-12-24T06:33:49.742Z,6.50
2017-12-24T06:36:17.447Z,6.48
2017-12-24T06:38:45.916Z,6.42
2017-12-24T06:41:13.601Z,6.46
2017-12-24T06:43:41.260Z,6.45
2017-12-24T06:46:09.306Z,6.53
2017-12-24T06:48:37.009Z,6.54
2017-12-24T06:51:04.957Z,6.56
2017-12-24T06:53:45.850Z,6.55
2017-12-24T06:58:52.187Z,6.59
2017-12-24T07:01:26.884Z,6.59
2017-12-24T07:03:55.524Z,6.52
2017-12-24T07:06:23.930Z,6.44
2017-12-24T07:08:51.715Z,6.59
2017-12-24T07:11:19.402Z,6.55
2017-12-24T07:13:47.454Z,6.57
2017-12-24T07:16:15.132Z,6.56
2017-12-24T07:18:53.924Z,6.55
2017-12-24T07:21:21.610Z,6.59
2017-12-24T07:23:50.150Z,6.68
2017-12-24T07:26:17.764Z,6.65
2017-12-24T07:28:46.526Z,6.63
2017-12-24T07:31:15.231Z,6.71
2017-12-24T07:33:42.886Z,6.61
2017-12-24T07:36:10.519Z,6.75
2017-12-24T07:38:38.496Z,6.70
2017-12-24T07:41:06.854Z,6.85
2017-12-24T07:43:34.688Z,6.85
2017-12-24T07:46:03.491Z,6.79
2017-12-24T07:48:34.732Z,6.82
2017-12-24T07:51:02.468Z,6.72
2017-12-24T07:53:31.007Z,6.68
2017-12-24T07:55:59.574Z,6.80
2017-12-24T07:58:30.399Z,6.80
2017-12-24T08:01:00.541Z,6.81
2017-12-24T08:07:13.983Z,6.85
2017-12-24T08:09:46.372Z,6.92
2017-12-24T08:12:14.033Z,6.89
2017-12-24T08:14:41.959Z,6.90
2017-12-24T08:17:09.728Z,6.90
2017-12-24T08:19:37.412Z,6.86
2017-12-24T08:22:05.095Z,6.88
2017-12-24T08:24:36.302Z,6.95
2017-12-24T08:27:05.138Z,6.85
2017-12-24T08:29:33.045Z,6.90
2017-12-24T08:32:04.146Z,6.82
2017-12-24T08:34:32.347Z,6.94
2017-12-24T08:40:35.836Z,6.89
2017-12-24T08:43:22.647Z,6.87
2017-12-24T08:49:30.490Z,7.01
2017-12-24T08:51:58.271Z,6.95
2017-12-24T08:54:27.357Z,6.92
2017-12-24T08:56:58.887Z,6.81
2017-12-24T08:59:35.375Z,6.89
2017-12-24T09:02:05.179Z,7.01
2017-12-24T09:04:33.458Z,7.04
2017-12-24T09:07:01.662Z,7.12
2017-12-24T09:09:36.672Z,6.94
2017-12-24T09:12:06.486Z,6.95
2017-12-24T09:14:37.699Z,6.90
2017-12-24T09:17:14.661Z,6.85
2017-12-24T09:19:42.686Z,7.02
2017-12-24T09:22:10.846Z,6.95
2017-12-24T09:24:38.788Z,6.84
2017-12-24T09:27:07.538Z,7.02
2017-12-24T09:29:35.180Z,7.09
2017-12-24T09:32:03.593Z,7.11
2017-12-24T09:34:33.281Z,7.19
2017-12-24T09:37:13.666Z,7.17
2017-12-24T09:39:47.487Z,7.08
2017-12-24T09:42:15.341Z,7.04
2017-12-24T09:44:43.784Z,7.19
2017-12-24T09:47:12.120Z,7.26
2017-12-24T09:56:54.554Z,7.37
2017-12-24T09:59:24.911Z,7.48
2017-12-24T10:01:56.928Z,7.55
2017-12-24T10:04:25.157Z,7.66
2017-12-24T10:07:41.432Z,7.56
2017-12-24T10:13:21.078Z,7.50
2017-12-24T10:15:54.197Z,7.39
2017-12-24T10:18:22.248Z,7.49
2017-12-24T10:21:18.368Z,7.45
2017-12-24T10:27:21.165Z,7.46
2017-12-24T10:29:49.330Z,7.42
2017-12-24T10:32:20.476Z,7.46
2017-12-24T10:34:52.498Z,7.42
2017-12-24T10:37:21.849Z,7.58
2017-12-24T10:39:53.766Z,7.52
2017-12-24T10:45:02.258Z,7.53
2017-12-24T11:03:45.602Z,7.37
2017-12-24T11:06:13.809Z,7.38
2017-12-24T11:08:43.356Z,7.46
2017-12-24T11:11:11.438Z,7.42
2017-12-24T11:13:43.758Z,7.35
2017-12-24T11:16:12.281Z,7.48
2017-12-24T11:21:12.369Z,7.47
2017-12-24T11:23:40.437Z,7.37
2017-12-24T11:26:09.877Z,7.39
2017-12-24T11:28:40.087Z,7.45
2017-12-24T11:31:07.905Z,7.39
2017-12-24T11:33:35.588Z,7.49
2017-12-24T11:36:03.551Z,7.59
2017-12-24T11:38:31.993Z,7.45
2017-12-24T11:41:14.407Z,7.56
2017-12-24T11:43:42.533Z,7.53
2017-12-24T11:46:11.563Z,7.53
2017-12-24T11:48:39.542Z,7.85
2017-12-24T11:51:07.769Z,7.77
2017-12-24T11:53:36.648Z,7.81
2017-12-24T11:56:05.410Z,9.07
2017-12-24T11:58:33.201Z,8.44
2017-12-24T12:01:01.309Z,8.29
2017-12-24T12:03:29.178Z,8.17
2017-12-24T12:05:56.949Z,8.13
2017-12-24T12:08:39.297Z,8.11
2017-12-24T12:11:10.003Z,8.14
2017-12-24T12:13:40.228Z,8.14
2017-12-24T12:16:09.103Z,8.22
2017-12-24T12:18:41.356Z,8.23
2017-12-24T12:21:09.044Z,8.23
2017-12-24T12:23:36.780Z,8.38
2017-12-24T12:26:04.510Z,8.33
2017-12-24T12:28:33.643Z,8.43
2017-12-24T12:31:01.391Z,8.76
2017-12-24T12:33:34.008Z,8.76
2017-12-24T12:36:04.240Z,8.65
2017-12-24T12:38:37.711Z,8.66
2017-12-24T12:41:12.840Z,8.59
2017-12-24T12:43:40.968Z,8.72
2017-12-24T12:46:08.641Z,8.77
2017-12-24T12:48:36.478Z,8.75
2017-12-24T12:51:04.211Z,8.82
2017-12-24T12:53:31.858Z,8.70
2017-12-24T12:55:59.672Z,8.68
2017-12-24T12:58:27.829Z,8.74
2017-12-24T13:00:55.643Z,8.71
2017-12-24T13:03:23.434Z,8.72
2017-12-24T13:05:51.747Z,8.68
2017-12-24T13:08:19.946Z,8.77
2017-12-24T13:10:47.817Z,8.62
2017-12-24T13:13:15.544Z,8.49
2017-12-24T13:15:43.257Z,8.46
2017-12-24T13:18:10.978Z,8.50
2017-12-24T13:20:38.686Z,8.57
2017-12-24T13:23:06.459Z,8.55
2017-12-24T13:25:34.204Z,8.42
2017-12-24T13:28:01.907Z,8.29
2017-12-24T13:30:29.615Z,8.40
2017-12-24T13:32:58.612Z,8.25
2017-12-24T13:35:26.282Z,8.34
2017-12-24T13:37:54.006Z,8.25
2017-12-24T13:40:22.015Z,8.16
2017-12-24T13:42:49.701Z,8.15
2017-12-24T13:45:17.618Z,8.08
2017-12-24T13:47:45.512Z,8.09
2017-12-24T13:50:13.461Z,8.10
2017-12-24T13:52:41.244Z,8.20
2017-12-24T13:55:09.069Z,8.06
2017-12-24T13:57:36.975Z,8.13
2017-12-24T14:00:06.966Z,8.08
2017-12-24T14:02:34.620Z,8.13
2017-12-24T14:05:03.008Z,8.14
2017-12-24T14:07:30.630Z,8.10
2017-12-24T14:09:59.143Z,8.04
2017-12-24T14:12:27.907Z,8.06
2017-12-24T14:14:56.099Z,8.00
2017-12-24T14:17:24.115Z,7.96
2017-12-24T14:19:51.828Z,7.96
2017-12-24T14:22:19.634Z,7.96
2017-12-24T14:24:47.361Z,8.09
2017-12-24T14:27:15.988Z,8.03
2017-12-24T14:29:44.526Z,8.12
2017-12-24T14:32:12.907Z,8.08
2017-12-24T14:34:41.485Z,8.06
2017-12-24T14:37:09.126Z,8.10
2017-12-24T14:39:36.854Z,8.08
2017-12-24T14:42:04.671Z,8.13
2017-12-24T14:44:36.334Z,8.17
2017-12-24T14:47:04.135Z,8.21
2017-12-24T14:49:31.823Z,8.20
2017-12-24T14:51:59.780Z,8.17
2017-12-24T14:54:27.482Z,8.29
2017-12-24T14:56:55.212Z,8.31
2017-12-24T14:59:22.926Z,8.34
2017-12-24T15:01:50.691Z,8.41
2017-12-24T15:04:18.459Z,8.43
2017-12-24T15:06:47.198Z,8.40
2017-12-24T15:09:14.917Z,8.43
2017-12-24T15:11:42.632Z,8.50
2017-12-24T15:14:10.427Z,8.58
2017-12-24T15:16:39.184Z,8.49
2017-12-24T15:19:07.856Z,8.61
2017-12-24T15:21:35.610Z,8.61
2017-12-24T15:24:03.490Z,8.67
2017-12-24T15:26:32.612Z,8.69
2017-12-24T15:29:00.356Z,8.72
2017-12-24T15:31:28.238Z,8.57
2017-12-24T15:33:56.278Z,8.68
2017-12-24T15:36:24.114Z,8.76
2017-12-24T15:38:51.976Z,8.77
2017-12-24T15:41:21.098Z,8.71
2017-12-24T15:43:48.943Z,8.71
2017-12-24T15:46:16.636Z,8.71
2017-12-24T15:48:44.565Z,8.72
2017-12-24T15:51:12.259Z,8.70
2017-12-24T15:53:40.047Z,8.58
2017-12-24T15:56:08.498Z,8.57
2017-12-24T15:58:36.399Z,8.68
2017-12-24T16:01:05.033Z,8.63
2017-12-24T16:03:33.546Z,8.61
2017-12-24T16:06:01.313Z,8.58
2017-12-24T16:08:30.303Z,8.61
2017-12-24T16:10:58.123Z,8.57
2017-12-24T16:13:25.871Z,8.51
2017-12-24T16:15:53.516Z,8.54
2017-12-24T16:18:21.228Z,8.53
2017-12-24T16:20:48.874Z,8.50
2017-12-24T16:23:16.898Z,8.44
2017-12-24T16:25:44.848Z,8.46
2017-12-24T16:28:13.700Z,8.50
2017-12-24T16:30:41.583Z,8.45
2017-12-24T16:33:09.250Z,8.52
2017-12-24T16:35:36.927Z,8.59
2017-12-24T16:38:05.423Z,8.50
2017-12-24T16:40:33.595Z,8.51
2017-12-24T16:43:01.444Z,8.53
2017-12-24T16:45:29.595Z,8.43
2017-12-24T16:47:57.344Z,8.39
2017-12-24T16:50:25.217Z,8.46
2017-12-24T16:52:53.001Z,8.40
2017-12-24T16:55:21.691Z,8.39
2017-12-24T16:57:49.640Z,8.40
2017-12-24T17:00:17.458Z,8.31
2017-12-24T17:02:45.377Z,8.28
2017-12-24T17:05:13.070Z,8.33
2017-12-24T17:07:40.747Z,8.30
2017-12-24T17:10:08.492Z,8.36
2017-12-24T17:12:36.155Z,8.27
2017-12-24T17:15:04.389Z,8.38
2017-12-24T17:17:32.091Z,8.37
2017-12-24T17:19:59.960Z,8.35
2017-12-24T17:22:27.686Z,8.34
2017-12-24T17:24:55.706Z,8.39
2017-12-24T17:27:23.397Z,8.42
2017-12-24T17:29:51.077Z,8.29
2017-12-24T17:32:18.778Z,8.47
2017-12-24T17:34:46.411Z,8.50
2017-12-24T17:37:14.068Z,8.55
2017-12-24T17:39:41.834Z,8.58
2017-12-24T17:42:09.513Z,8.61
2017-12-24T17:44:37.945Z,8.59
2017-12-24T17:47:05.635Z,8.59
2017-12-24T17:49:33.410Z,8.61
2017-12-24T17:52:01.075Z,8.69
2017-12-24T17:54:29.217Z,8.53
2017-12-24T17:56:56.911Z,8.50
2017-12-24T17:59:24.565Z,8.66
2017-12-24T18:01:53.751Z,8.74
2017-12-24T18:04:21.435Z,8.65
2017-12-24T18:06:49.166Z,8.66
2017-12-24T18:09:17.023Z,8.69
2017-12-24T18:11:44.870Z,8.52
2017-12-24T18:14:13.047Z,8.62
2017-12-24T18:16:40.944Z,8.63
2017-12-24T18:19:08.727Z,8.66
2017-12-24T18:21:36.487Z,8.56
2017-12-24T18:24:04.259Z,8.62
2017-12-24T18:26:32.028Z,8.55
2017-12-24T18:28:59.689Z,8.59
2017-12-24T18:31:27.488Z,8.60
2017-12-24T18:33:55.233Z,8.61
2017-12-24T18:36:22.953Z,8.67
2017-12-24T18:38:51.462Z,8.71
2017-12-24T18:41:19.186Z,8.69
2017-12-24T18:43:47.005Z,8.73
2017-12-24T18:46:14.848Z,8.71
2017-12-24T18:48:42.596Z,8.80
2017-12-24T18:51:10.339Z,8.68
2017-12-24T18:53:38.130Z,8.75
2017-12-24T18:56:05.812Z,8.71
2017-12-24T18:58:34.184Z,8.74
2017-12-24T19:01:02.023Z,8.73
2017-12-24T19:03:30.989Z,8.73
2017-12-24T19:05:58.703Z,8.73
2017-12-24T19:08:26.455Z,8.80
2017-12-24T19:10:54.133Z,8.76
2017-12-24T19:13:22.335Z,8.89
2017-12-24T19:15:50.021Z,8.81
2017-12-24T19:18:17.864Z,8.88
2017-12-24T19:20:45.783Z,8.95
2017-12-24T19:23:13.536Z,8.84
2017-12-24T19:25:41.221Z,8.80
2017-12-24T19:28:08.927Z,8.85
2017-12-24T19:30:37.272Z,8.84
2017-12-24T19:33:05.131Z,8.87
2017-12-24T19:35:32.805Z,8.98
2017-12-24T19:38:00.473Z,8.96
2017-12-24T19:40:28.141Z,8.98
2017-12-24T19:42:56.709Z,8.98
2017-12-24T19:45:24.700Z,9.00
2017-12-24T19:47:54.262Z,8.96
2017-12-24T19:50:22.164Z,8.97
2017-12-24T19:52:49.869Z,8.88
2017-12-24T19:55:17.715Z,8.92
2017-12-24T19:57:46.260Z,8.96
2017-12-24T20:00:14.179Z,9.01
2017-12-24T20:02:41.883Z,8.92
2017-12-24T20:05:09.786Z,9.03
2017-12-24T20:07:37.484Z,9.04
2017-12-24T20:12:40.539Z,9.09
2017-12-24T20:15:08.497Z,9.10
2017-12-24T20:17:36.279Z,9.06
2017-12-24T20:20:04.050Z,9.07
2017-12-24T20:22:31.856Z,9.08
2017-12-24T20:24:59.808Z,9.12
2017-12-24T20:27:27.747Z,9.18
2017-12-24T20:29:56.008Z,9.14
2017-12-24T20:32:23.780Z,9.19
2017-12-24T20:34:51.533Z,9.23
2017-12-24T20:37:19.218Z,9.23
2017-12-24T20:39:46.963Z,9.21
2017-12-24T20:42:14.676Z,9.24
2017-12-24T20:44:42.399Z,9.13
2017-12-24T20:47:10.032Z,9.18
2017-12-24T20:49:38.754Z,9.16
2017-12-24T20:52:06.384Z,9.20
2017-12-24T20:54:34.095Z,9.16
2017-12-24T20:57:01.964Z,9.11
2017-12-24T20:59:30.436Z,9.08
2017-12-24T21:01:58.229Z,8.94
2017-12-24T21:04:26.029Z,8.70
2017-12-24T21:06:57.394Z,8.62
2017-12-24T21:09:25.859Z,8.37
2017-12-24T21:11:53.501Z,8.20
2017-12-24T21:14:21.892Z,8.25
2017-12-24T21:16:49.944Z,8.32
2017-12-24T21:19:17.611Z,8.23
2017-12-24T21:21:45.304Z,8.35
2017-12-24T21:24:12.973Z,8.28
2017-12-24T21:26:40.822Z,8.11
2017-12-24T21:29:08.600Z,8.06
2017-12-24T21:31:36.406Z,8.20
2017-12-24T21:34:04.088Z,8.26
2017-12-24T21:36:31.797Z,8.20
2017-12-24T21:41:28.347Z,7.96
2017-12-24T21:43:55.990Z,7.87
2017-12-24T21:46:23.882Z,8.01
2017-12-24T21:51:39.709Z,7.98
2017-12-24T21:54:07.656Z,8.02
2017-12-24T21:56:40.438Z,8.17
2017-12-24T21:59:08.189Z,8.15
2017-12-24T22:01:36.354Z,8.07
2017-12-24T22:04:04.131Z,8.09
2017-12-24T22:06:31.812Z,8.02
2017-12-24T22:08:59.449Z,8.00
2017-12-24T22:16:45.370Z,7.72
2017-12-24T22:19:13.201Z,7.45
2017-12-24T22:21:40.862Z,7.34
2017-12-24T22:24:09.190Z,7.25
2017-12-24T22:26:37.971Z,7.28
2017-12-24T22:29:05.881Z,7.27
2017-12-24T22:31:33.637Z,7.16
2017-12-24T22:34:01.447Z,7.17
2017-12-24T22:36:29.220Z,7.09
2017-12-24T22:38:56.900Z,7.36
2017-12-24T22:41:24.575Z,7.08
2017-12-24T22:43:52.804Z,7.32
2017-12-24T22:46:20.499Z,6.86
2017-12-24T22:48:48.220Z,6.80
2017-12-24T22:51:15.939Z,7.00
2017-12-24T22:53:43.851Z,6.84
2017-12-24T22:56:11.529Z,6.79
2017-12-24T22:58:39.282Z,6.93
2017-12-24T23:01:07.269Z,7.15
2017-12-24T23:03:35.025Z,7.28
2017-12-24T23:06:02.839Z,6.91
2017-12-24T23:08:30.518Z,6.92
2017-12-24T23:10:58.209Z,6.84
2017-12-24T23:13:25.985Z,6.52
2017-12-24T23:15:53.768Z,6.64
2017-12-24T23:18:23.142Z,6.54
2017-12-24T23:20:50.847Z,6.10
2017-12-24T23:23:18.747Z,6.07
2017-12-24T23:25:46.519Z,5.73
2017-12-24T23:28:14.811Z,5.83
2017-12-24T23:30:42.616Z,5.95
2017-12-24T23:33:11.441Z,5.95
2017-12-24T23:35:39.930Z,6.11
2017-12-24T23:38:08.354Z,6.22
2017-12-24T23:40:36.020Z,6.30
2017-12-24T23:43:03.754Z,6.61
2017-12-24T23:45:31.812Z,6.68
2017-12-24T23:47:59.601Z,6.05
2017-12-24T23:50:27.284Z,6.14
2017-12-24T23:53:00.681Z,6.03
2017-12-24T23:55:28.709Z,6.08
2017-12-24T23:57:56.559Z,5.77
